Time;durP1;ratioP1;P1;durP2;ratioP2;P2;SDS_P1;SDS_P2;PMS_P1;PMS_P2;Temp;Humidity;BMP_temperature;BMP_pressure;BME280_temperature;BME280_humidity;BME280_pressure;Samples;Min_cycle;Max_cycle;Signal;HPM_P1;HPM_P2
2020/02/26 00:00:48;;;;;;;2.45;1.4;;;;;;;5.82;74.98145;93580.38;;;;
2020/02/26 00:02:28;;;;;;;2.45;1.4;;;;;;;5.82;74.98145;93580.38;;;;
2020/02/26 00:03:43;;;;;;;2.45;1.4;;;;;;;5.82;74.98145;93580.38;;;;
2020/02/26 00:05:35;;;;;;;2.45;1.4;;;;;;;5.82;74.98145;93580.38;;;;
2020/02/26 00:07:10;;;;;;;2.45;1.4;;;;;;;5.82;74.98145;93580.38;;;;
2020/02/26 00:08:16;;;;;;;2.45;1.4;;;;;;;5.82;74.98145;93580.38;;;;
2020/02/26 00:09:22;;;;;;;2.45;1.4;;;;;;;5.82;74.98145;93580.38;;;;
2020/02/26 00:11:41;;;;;;;1.5;1.3;;;;;;;5.53;75.2373;93573.95;;;;
2020/02/26 00:12:58;;;;;;;1.5;1.3;;;;;;;5.53;75.2373;93573.95;;;;
2020/02/26 00:14:10;;;;;;;1.5;1.3;;;;;;;5.53;75.2373;93573.95;;;;
2020/02/26 00:15:18;;;;;;;1.5;1.3;;;;;;;5.53;75.2373;93573.95;;;;
2020/02/26 00:20:20;;;;;;;1.5;1.3;;;;;;;5.53;75.2373;93573.95;;;;
2020/02/26 00:21:32;;;;;;;1.6;1.3;;;;;;;5.41;75.69336;93563.48;;;;
2020/02/26 00:22:38;;;;;;;1.6;1.3;;;;;;;5.41;75.69336;93563.48;;;;
2020/02/26 00:24:03;;;;;;;1.6;1.3;;;;;;;5.41;75.69336;93563.48;;;;
2020/02/26 00:25:28;;;;;;;1.6;1.3;;;;;;;5.41;75.69336;93563.48;;;;
2020/02/26 00:26:47;;;;;;;1.6;1.3;;;;;;;5.41;75.69336;93563.48;;;;
2020/02/26 00:28:38;;;;;;;1.6;1.3;;;;;;;5.41;75.69336;93563.48;;;;
2020/02/26 00:29:49;;;;;;;1.6;1.3;;;;;;;5.41;75.69336;93563.48;;;;
2020/02/26 00:30:55;;;;;;;1.6;1.3;;;;;;;5.41;75.69336;93563.48;;;;
2020/02/26 00:32:29;;;;;;;1.5;1.25;;;;;;;5.3;76.22266;93545.54;;;;
2020/02/26 00:33:38;;;;;;;1.5;1.25;;;;;;;5.3;76.22266;93545.54;;;;
2020/02/26 00:34:39;;;;;;;1.5;1.25;;;;;;;5.3;76.22266;93545.54;;;;
2020/02/26 00:35:40;;;;;;;1.5;1.25;;;;;;;5.3;76.22266;93545.54;;;;
2020/02/26 00:36:42;;;;;;;1.5;1.25;;;;;;;5.3;76.22266;93545.54;;;;
2020/02/26 00:37:55;;;;;;;1.5;1.25;;;;;;;5.3;76.22266;93545.54;;;;
2020/02/26 00:39:16;;;;;;;1.5;1.25;;;;;;;5.3;76.22266;93545.54;;;;
2020/02/26 00:41:13;;;;;;;1.5;1.25;;;;;;;5.3;76.22266;93545.54;;;;
2020/02/26 00:42:34;;;;;;;1.35;1.25;;;;;;;5.23;76.24121;93538.34;;;;
2020/02/26 00:43:39;;;;;;;1.35;1.25;;;;;;;5.23;76.24121;93538.34;;;;
2020/02/26 00:44:39;;;;;;;1.35;1.25;;;;;;;5.23;76.24121;93538.34;;;;
2020/02/26 00:45:41;;;;;;;1.35;1.25;;;;;;;5.23;76.24121;93538.34;;;;
2020/02/26 00:46:41;;;;;;;1.35;1.25;;;;;;;5.23;76.24121;93538.34;;;;
2020/02/26 00:47:48;;;;;;;1.35;1.25;;;;;;;5.23;76.24121;93538.34;;;;
2020/02/26 00:48:53;;;;;;;1.35;1.25;;;;;;;5.23;76.24121;93538.34;;;;
2020/02/26 00:49:59;;;;;;;1.35;1.25;;;;;;;5.23;76.24121;93538.34;;;;
2020/02/26 00:51:36;;;;;;;1.35;1.25;;;;;;;5.23;76.24121;93538.34;;;;
2020/02/26 00:52:54;;;;;;;1.2;1.1;;;;;;;5.01;76.58105;93509.38;;;;
2020/02/26 00:54:09;;;;;;;1.2;1.1;;;;;;;5.01;76.58105;93509.38;;;;
2020/02/26 00:55:16;;;;;;;1.2;1.1;;;;;;;5.01;76.58105;93509.38;;;;
2020/02/26 00:56:31;;;;;;;1.2;1.1;;;;;;;5.01;76.58105;93509.38;;;;
2020/02/26 00:57:34;;;;;;;1.2;1.1;;;;;;;5.01;76.58105;93509.38;;;;
2020/02/26 00:58:34;;;;;;;1.2;1.1;;;;;;;5.01;76.58105;93509.38;;;;
2020/02/26 01:00:16;;;;;;;1.2;1.1;;;;;;;5.01;76.58105;93509.38;;;;
2020/02/26 01:02:37;;;;;;;1.2;1.1;;;;;;;5.01;76.58105;93509.38;;;;
2020/02/26 01:04:03;;;;;;;1.8;1.2;;;;;;;4.91;77.15527;93501.23;;;;
2020/02/26 01:06:01;;;;;;;1.8;1.2;;;;;;;4.91;77.15527;93501.23;;;;
2020/02/26 01:07:24;;;;;;;1.8;1.2;;;;;;;4.91;77.15527;93501.23;;;;
2020/02/26 01:08:34;;;;;;;1.8;1.2;;;;;;;4.91;77.15527;93501.23;;;;
2020/02/26 01:09:51;;;;;;;1.8;1.2;;;;;;;4.91;77.15527;93501.23;;;;
2020/02/26 01:12:09;;;;;;;1.8;1.2;;;;;;;4.91;77.15527;93501.23;;;;
2020/02/26 01:13:46;;;;;;;1.8;1.2;;;;;;;4.91;77.15527;93501.23;;;;
2020/02/26 01:14:58;;;;;;;1.5;1.2;;;;;;;4.77;77.90137;93484.69;;;;
2020/02/26 01:16:30;;;;;;;1.5;1.2;;;;;;;4.77;77.90137;93484.69;;;;
2020/02/26 01:17:37;;;;;;;1.5;1.2;;;;;;;4.77;77.90137;93484.69;;;;
2020/02/26 01:18:38;;;;;;;1.5;1.2;;;;;;;4.77;77.90137;93484.69;;;;
2020/02/26 01:19:59;;;;;;;1.5;1.2;;;;;;;4.77;77.90137;93484.69;;;;
2020/02/26 01:21:04;;;;;;;1.5;1.2;;;;;;;4.77;77.90137;93484.69;;;;
2020/02/26 01:22:15;;;;;;;1.5;1.2;;;;;;;4.77;77.90137;93484.69;;;;
2020/02/26 01:23:24;;;;;;;1.5;1.2;;;;;;;4.77;77.90137;93484.69;;;;
2020/02/26 01:24:40;;;;;;;1.5;1.2;;;;;;;4.77;77.90137;93484.69;;;;
2020/02/26 01:25:40;;;;;;;1.5;1;;;;;;;4.84;78.40918;93455.14;;;;
2020/02/26 01:26:48;;;;;;;1.5;1;;;;;;;4.84;78.40918;93455.14;;;;
2020/02/26 01:27:52;;;;;;;1.5;1;;;;;;;4.84;78.40918;93455.14;;;;
2020/02/26 01:28:52;;;;;;;1.5;1;;;;;;;4.84;78.40918;93455.14;;;;
2020/02/26 01:29:56;;;;;;;1.5;1;;;;;;;4.84;78.40918;93455.14;;;;
2020/02/26 01:31:29;;;;;;;1.5;1;;;;;;;4.84;78.40918;93455.14;;;;
2020/02/26 01:32:42;;;;;;;1.5;1;;;;;;;4.84;78.40918;93455.14;;;;
2020/02/26 01:33:51;;;;;;;1.5;1;;;;;;;4.84;78.40918;93455.14;;;;
2020/02/26 01:34:56;;;;;;;1.5;1;;;;;;;4.84;78.40918;93455.14;;;;
2020/02/26 01:35:56;;;;;;;2.75;1.2;;;;;;;4.92;78.18164;93439.48;;;;
2020/02/26 01:37:01;;;;;;;2.75;1.2;;;;;;;4.92;78.18164;93439.48;;;;
2020/02/26 01:38:11;;;;;;;2.75;1.2;;;;;;;4.92;78.18164;93439.48;;;;
2020/02/26 01:39:16;;;;;;;2.75;1.2;;;;;;;4.92;78.18164;93439.48;;;;
2020/02/26 01:42:00;;;;;;;2.75;1.2;;;;;;;4.92;78.18164;93439.48;;;;
2020/02/26 01:43:16;;;;;;;2.75;1.2;;;;;;;4.92;78.18164;93439.48;;;;
2020/02/26 01:44:18;;;;;;;2.75;1.2;;;;;;;4.92;78.18164;93439.48;;;;
2020/02/26 01:45:19;;;;;;;2.75;1.2;;;;;;;4.92;78.18164;93439.48;;;;
2020/02/26 01:46:39;;;;;;;2.2;1.1;;;;;;;5.08;78.20898;93435.13;;;;
2020/02/26 01:47:51;;;;;;;2.2;1.1;;;;;;;5.08;78.20898;93435.13;;;;
2020/02/26 01:48:57;;;;;;;2.2;1.1;;;;;;;5.08;78.20898;93435.13;;;;
2020/02/26 01:50:13;;;;;;;2.2;1.1;;;;;;;5.08;78.20898;93435.13;;;;
2020/02/26 01:51:17;;;;;;;2.2;1.1;;;;;;;5.08;78.20898;93435.13;;;;
2020/02/26 01:52:30;;;;;;;2.2;1.1;;;;;;;5.08;78.20898;93435.13;;;;
2020/02/26 01:53:34;;;;;;;2.2;1.1;;;;;;;5.08;78.20898;93435.13;;;;
2020/02/26 01:54:41;;;;;;;2.2;1.1;;;;;;;5.08;78.20898;93435.13;;;;
2020/02/26 01:55:51;;;;;;;2.2;1.1;;;;;;;5.08;78.20898;93435.13;;;;
2020/02/26 01:56:51;;;;;;;2.25;1;;;;;;;5.12;77.86719;93404.58;;;;
2020/02/26 01:57:52;;;;;;;2.25;1;;;;;;;5.12;77.86719;93404.58;;;;
2020/02/26 01:58:57;;;;;;;2.25;1;;;;;;;5.12;77.86719;93404.58;;;;
2020/02/26 01:59:57;;;;;;;2.25;1;;;;;;;5.12;77.86719;93404.58;;;;
2020/02/26 02:00:58;;;;;;;2.25;1;;;;;;;5.12;77.86719;93404.58;;;;
2020/02/26 02:02:22;;;;;;;2.25;1;;;;;;;5.12;77.86719;93404.58;;;;
2020/02/26 02:04:00;;;;;;;2.25;1;;;;;;;5.12;77.86719;93404.58;;;;
2020/02/26 02:05:10;;;;;;;2.25;1;;;;;;;5.12;77.86719;93404.58;;;;
2020/02/26 02:08:25;;;;;;;2.05;1.1;;;;;;;5.15;77.54688;93389.76;;;;
2020/02/26 02:09:39;;;;;;;2.05;1.1;;;;;;;5.15;77.54688;93389.76;;;;
2020/02/26 02:19:28;;;;;;;1.3;0.85;;;;;;;5.26;77.13281;93380.4;;;;
2020/02/26 02:20:40;;;;;;;1.3;0.85;;;;;;;5.26;77.13281;93380.4;;;;
2020/02/26 02:21:45;;;;;;;1.3;0.85;;;;;;;5.26;77.13281;93380.4;;;;
2020/02/26 02:22:46;;;;;;;1.3;0.85;;;;;;;5.26;77.13281;93380.4;;;;
2020/02/26 02:24:03;;;;;;;1.3;0.85;;;;;;;5.26;77.13281;93380.4;;;;
2020/02/26 02:25:08;;;;;;;1.3;0.85;;;;;;;5.26;77.13281;93380.4;;;;
2020/02/26 02:26:20;;;;;;;1.3;0.85;;;;;;;5.26;77.13281;93380.4;;;;
2020/02/26 02:27:29;;;;;;;1.3;0.85;;;;;;;5.26;77.13281;93380.4;;;;
2020/02/26 02:29:35;;;;;;;1.3;0.9;;;;;;;5.49;76.43359;93356.59;;;;
2020/02/26 02:30:45;;;;;;;1.3;0.9;;;;;;;5.49;76.43359;93356.59;;;;
2020/02/26 02:31:53;;;;;;;1.3;0.9;;;;;;;5.49;76.43359;93356.59;;;;
2020/02/26 02:33:00;;;;;;;1.3;0.9;;;;;;;5.49;76.43359;93356.59;;;;
2020/02/26 02:34:06;;;;;;;1.3;0.9;;;;;;;5.49;76.43359;93356.59;;;;
2020/02/26 02:35:16;;;;;;;1.3;0.9;;;;;;;5.49;76.43359;93356.59;;;;
2020/02/26 02:38:53;;;;;;;1.3;0.9;;;;;;;5.49;76.43359;93356.59;;;;
2020/02/26 02:39:58;;;;;;;1.2;0.9;;;;;;;5.52;76.36816;93429.16;;;;
2020/02/26 02:41:13;;;;;;;1.2;0.9;;;;;;;5.52;76.36816;93429.16;;;;
2020/02/26 02:42:26;;;;;;;1.2;0.9;;;;;;;5.52;76.36816;93429.16;;;;
2020/02/26 02:43:30;;;;;;;1.2;0.9;;;;;;;5.52;76.36816;93429.16;;;;
2020/02/26 02:44:33;;;;;;;1.2;0.9;;;;;;;5.52;76.36816;93429.16;;;;
2020/02/26 02:45:36;;;;;;;1.2;0.9;;;;;;;5.52;76.36816;93429.16;;;;
2020/02/26 02:46:39;;;;;;;1.2;0.9;;;;;;;5.52;76.36816;93429.16;;;;
2020/02/26 02:47:48;;;;;;;1.2;0.9;;;;;;;5.52;76.36816;93429.16;;;;
2020/02/26 02:48:52;;;;;;;1.2;0.9;;;;;;;5.52;76.36816;93429.16;;;;
2020/02/26 02:49:57;;;;;;;1.55;0.6;;;;;;;5.06;78.78613;93490.73;;;;
2020/02/26 02:51:05;;;;;;;1.55;0.6;;;;;;;5.06;78.78613;93490.73;;;;
2020/02/26 02:52:11;;;;;;;1.55;0.6;;;;;;;5.06;78.78613;93490.73;;;;
2020/02/26 02:53:20;;;;;;;1.55;0.6;;;;;;;5.06;78.78613;93490.73;;;;
2020/02/26 02:54:23;;;;;;;1.55;0.6;;;;;;;5.06;78.78613;93490.73;;;;
2020/02/26 02:55:29;;;;;;;1.55;0.6;;;;;;;5.06;78.78613;93490.73;;;;
2020/02/26 02:56:29;;;;;;;1.55;0.6;;;;;;;5.06;78.78613;93490.73;;;;
2020/02/26 02:57:31;;;;;;;1.55;0.6;;;;;;;5.06;78.78613;93490.73;;;;
2020/02/26 02:58:32;;;;;;;1.55;0.6;;;;;;;5.06;78.78613;93490.73;;;;
2020/02/26 02:59:32;;;;;;;1.55;0.6;;;;;;;5.06;78.78613;93490.73;;;;
2020/02/26 03:00:36;;;;;;;0.45;0.45;;;;;;;4.28;80.21387;93423.94;;;;
2020/02/26 03:01:54;;;;;;;0.45;0.45;;;;;;;4.28;80.21387;93423.94;;;;
2020/02/26 03:03:09;;;;;;;0.45;0.45;;;;;;;4.28;80.21387;93423.94;;;;
2020/02/26 03:04:12;;;;;;;0.45;0.45;;;;;;;4.28;80.21387;93423.94;;;;
2020/02/26 03:05:38;;;;;;;0.45;0.45;;;;;;;4.28;80.21387;93423.94;;;;
2020/02/26 03:06:42;;;;;;;0.45;0.45;;;;;;;4.28;80.21387;93423.94;;;;
2020/02/26 03:07:44;;;;;;;0.45;0.45;;;;;;;4.28;80.21387;93423.94;;;;
2020/02/26 03:08:57;;;;;;;0.45;0.45;;;;;;;4.28;80.21387;93423.94;;;;
2020/02/26 03:10:41;;;;;;;0.45;0.45;;;;;;;4.28;80.21387;93423.94;;;;
2020/02/26 03:12:12;;;;;;;0.6;0.6;;;;;;;3.74;81.79492;93414.89;;;;
2020/02/26 03:13:27;;;;;;;0.6;0.6;;;;;;;3.74;81.79492;93414.89;;;;
2020/02/26 03:14:34;;;;;;;0.6;0.6;;;;;;;3.74;81.79492;93414.89;;;;
2020/02/26 03:15:59;;;;;;;0.6;0.6;;;;;;;3.74;81.79492;93414.89;;;;
2020/02/26 03:17:29;;;;;;;0.6;0.6;;;;;;;3.74;81.79492;93414.89;;;;
2020/02/26 03:18:38;;;;;;;0.6;0.6;;;;;;;3.74;81.79492;93414.89;;;;
2020/02/26 03:20:05;;;;;;;0.6;0.6;;;;;;;3.74;81.79492;93414.89;;;;
2020/02/26 03:21:22;;;;;;;0.6;0.6;;;;;;;3.74;81.79492;93414.89;;;;
2020/02/26 03:22:23;;;;;;;0.45;0.45;;;;;;;3.32;82.72266;93417.97;;;;
2020/02/26 03:23:23;;;;;;;0.45;0.45;;;;;;;3.32;82.72266;93417.97;;;;
2020/02/26 03:24:32;;;;;;;0.45;0.45;;;;;;;3.32;82.72266;93417.97;;;;
2020/02/26 03:25:32;;;;;;;0.45;0.45;;;;;;;3.32;82.72266;93417.97;;;;
2020/02/26 03:26:33;;;;;;;0.45;0.45;;;;;;;3.32;82.72266;93417.97;;;;
2020/02/26 03:27:34;;;;;;;0.45;0.45;;;;;;;3.32;82.72266;93417.97;;;;
2020/02/26 03:28:35;;;;;;;0.45;0.45;;;;;;;3.32;82.72266;93417.97;;;;
2020/02/26 03:29:37;;;;;;;0.45;0.45;;;;;;;3.32;82.72266;93417.97;;;;
2020/02/26 03:30:39;;;;;;;0.45;0.45;;;;;;;3.32;82.72266;93417.97;;;;
2020/02/26 03:31:40;;;;;;;0.45;0.45;;;;;;;3.32;82.72266;93417.97;;;;
2020/02/26 03:32:43;;;;;;;0.6;0.5;;;;;;;3.07;84.54199;93399.63;;;;
2020/02/26 03:33:44;;;;;;;0.6;0.5;;;;;;;3.07;84.54199;93399.63;;;;
2020/02/26 03:34:45;;;;;;;0.6;0.5;;;;;;;3.07;84.54199;93399.63;;;;
2020/02/26 03:35:45;;;;;;;0.6;0.5;;;;;;;3.07;84.54199;93399.63;;;;
2020/02/26 03:36:46;;;;;;;0.6;0.5;;;;;;;3.07;84.54199;93399.63;;;;
2020/02/26 03:37:50;;;;;;;0.6;0.5;;;;;;;3.07;84.54199;93399.63;;;;
2020/02/26 03:38:51;;;;;;;0.6;0.5;;;;;;;3.07;84.54199;93399.63;;;;
2020/02/26 03:39:55;;;;;;;0.6;0.5;;;;;;;3.07;84.54199;93399.63;;;;
2020/02/26 03:41:00;;;;;;;0.6;0.5;;;;;;;3.07;84.54199;93399.63;;;;
2020/02/26 03:42:04;;;;;;;0.6;0.5;;;;;;;3.07;84.54199;93399.63;;;;
2020/02/26 03:43:07;;;;;;;0.75;0.7;;;;;;;2.95;85.39551;93400.29;;;;
2020/02/26 03:44:11;;;;;;;0.75;0.7;;;;;;;2.95;85.39551;93400.29;;;;
2020/02/26 03:45:12;;;;;;;0.75;0.7;;;;;;;2.95;85.39551;93400.29;;;;
2020/02/26 03:46:28;;;;;;;0.75;0.7;;;;;;;2.95;85.39551;93400.29;;;;
2020/02/26 03:47:28;;;;;;;0.75;0.7;;;;;;;2.95;85.39551;93400.29;;;;
2020/02/26 03:48:29;;;;;;;0.75;0.7;;;;;;;2.95;85.39551;93400.29;;;;
2020/02/26 03:49:30;;;;;;;0.75;0.7;;;;;;;2.95;85.39551;93400.29;;;;
2020/02/26 03:50:30;;;;;;;0.75;0.7;;;;;;;2.95;85.39551;93400.29;;;;
2020/02/26 03:51:31;;;;;;;0.75;0.7;;;;;;;2.95;85.39551;93400.29;;;;
2020/02/26 03:52:32;;;;;;;0.75;0.7;;;;;;;2.95;85.39551;93400.29;;;;
2020/02/26 03:53:32;;;;;;;0.65;0.65;;;;;;;3.09;85.89746;93453.11;;;;
2020/02/26 03:54:33;;;;;;;0.65;0.65;;;;;;;3.09;85.89746;93453.11;;;;
2020/02/26 03:55:33;;;;;;;0.65;0.65;;;;;;;3.09;85.89746;93453.11;;;;
2020/02/26 03:56:34;;;;;;;0.65;0.65;;;;;;;3.09;85.89746;93453.11;;;;
2020/02/26 03:57:35;;;;;;;0.65;0.65;;;;;;;3.09;85.89746;93453.11;;;;
2020/02/26 03:58:36;;;;;;;0.65;0.65;;;;;;;3.09;85.89746;93453.11;;;;
2020/02/26 03:59:39;;;;;;;0.65;0.65;;;;;;;3.09;85.89746;93453.11;;;;
2020/02/26 04:00:40;;;;;;;0.65;0.65;;;;;;;3.09;85.89746;93453.11;;;;
2020/02/26 04:01:52;;;;;;;0.65;0.65;;;;;;;3.09;85.89746;93453.11;;;;
2020/02/26 04:02:53;;;;;;;0.65;0.65;;;;;;;3.09;85.89746;93453.11;;;;
2020/02/26 04:03:53;;;;;;;0.65;0.65;;;;;;;3.39;85.74609;93470.23;;;;
2020/02/26 04:04:56;;;;;;;0.65;0.65;;;;;;;3.39;85.74609;93470.23;;;;
2020/02/26 04:05:57;;;;;;;0.65;0.65;;;;;;;3.39;85.74609;93470.23;;;;
2020/02/26 04:07:01;;;;;;;0.65;0.65;;;;;;;3.39;85.74609;93470.23;;;;
2020/02/26 04:08:02;;;;;;;0.65;0.65;;;;;;;3.39;85.74609;93470.23;;;;
2020/02/26 04:09:04;;;;;;;0.65;0.65;;;;;;;3.39;85.74609;93470.23;;;;
2020/02/26 04:10:41;;;;;;;0.65;0.65;;;;;;;3.39;85.74609;93470.23;;;;
2020/02/26 04:11:42;;;;;;;0.65;0.65;;;;;;;3.39;85.74609;93470.23;;;;
2020/02/26 04:12:44;;;;;;;0.65;0.65;;;;;;;3.39;85.74609;93470.23;;;;
2020/02/26 04:13:45;;;;;;;0.65;0.65;;;;;;;3.39;85.74609;93470.23;;;;
2020/02/26 04:14:46;;;;;;;0.7;0.7;;;;;;;3.6;85.33789;93486.41;;;;
2020/02/26 04:15:48;;;;;;;0.7;0.7;;;;;;;3.6;85.33789;93486.41;;;;
2020/02/26 04:16:48;;;;;;;0.7;0.7;;;;;;;3.6;85.33789;93486.41;;;;
2020/02/26 04:17:50;;;;;;;0.7;0.7;;;;;;;3.6;85.33789;93486.41;;;;
2020/02/26 04:18:53;;;;;;;0.7;0.7;;;;;;;3.6;85.33789;93486.41;;;;
2020/02/26 04:20:01;;;;;;;0.7;0.7;;;;;;;3.6;85.33789;93486.41;;;;
2020/02/26 04:21:04;;;;;;;0.7;0.7;;;;;;;3.6;85.33789;93486.41;;;;
2020/02/26 04:22:08;;;;;;;0.7;0.7;;;;;;;3.6;85.33789;93486.41;;;;
2020/02/26 04:23:11;;;;;;;0.7;0.7;;;;;;;3.6;85.33789;93486.41;;;;
2020/02/26 04:24:12;;;;;;;0.7;0.7;;;;;;;3.6;85.33789;93486.41;;;;
2020/02/26 04:25:13;;;;;;;1.6;1.2;;;;;;;3.55;85.12793;93509.09;;;;
2020/02/26 04:26:13;;;;;;;1.6;1.2;;;;;;;3.55;85.12793;93509.09;;;;
2020/02/26 04:27:17;;;;;;;1.6;1.2;;;;;;;3.55;85.12793;93509.09;;;;
2020/02/26 04:28:18;;;;;;;1.6;1.2;;;;;;;3.55;85.12793;93509.09;;;;
2020/02/26 04:29:19;;;;;;;1.6;1.2;;;;;;;3.55;85.12793;93509.09;;;;
2020/02/26 04:30:22;;;;;;;1.6;1.2;;;;;;;3.55;85.12793;93509.09;;;;
2020/02/26 04:31:27;;;;;;;1.6;1.2;;;;;;;3.55;85.12793;93509.09;;;;
2020/02/26 04:32:27;;;;;;;1.6;1.2;;;;;;;3.55;85.12793;93509.09;;;;
2020/02/26 04:33:28;;;;;;;1.6;1.2;;;;;;;3.55;85.12793;93509.09;;;;
2020/02/26 04:34:29;;;;;;;1.6;1.2;;;;;;;3.55;85.12793;93509.09;;;;
2020/02/26 04:35:30;;;;;;;1.6;1.2;;;;;;;3.55;85.12793;93509.09;;;;
2020/02/26 04:36:30;;;;;;;0.7;0.65;;;;;;;3.49;85.05371;93516.18;;;;
2020/02/26 04:37:31;;;;;;;0.7;0.65;;;;;;;3.49;85.05371;93516.18;;;;
2020/02/26 04:38:31;;;;;;;0.7;0.65;;;;;;;3.49;85.05371;93516.18;;;;
2020/02/26 04:39:32;;;;;;;0.7;0.65;;;;;;;3.49;85.05371;93516.18;;;;
2020/02/26 04:40:37;;;;;;;0.7;0.65;;;;;;;3.49;85.05371;93516.18;;;;
2020/02/26 04:41:39;;;;;;;0.7;0.65;;;;;;;3.49;85.05371;93516.18;;;;
2020/02/26 04:42:40;;;;;;;0.7;0.65;;;;;;;3.49;85.05371;93516.18;;;;
2020/02/26 04:43:41;;;;;;;0.7;0.65;;;;;;;3.49;85.05371;93516.18;;;;
2020/02/26 04:44:42;;;;;;;0.7;0.65;;;;;;;3.49;85.05371;93516.18;;;;
2020/02/26 04:45:43;;;;;;;0.7;0.65;;;;;;;3.49;85.05371;93516.18;;;;
2020/02/26 04:46:44;;;;;;;0.8;0.6;;;;;;;3.39;84.8252;93521.73;;;;
2020/02/26 04:47:44;;;;;;;0.8;0.6;;;;;;;3.39;84.8252;93521.73;;;;
2020/02/26 04:48:45;;;;;;;0.8;0.6;;;;;;;3.39;84.8252;93521.73;;;;
2020/02/26 04:49:50;;;;;;;0.8;0.6;;;;;;;3.39;84.8252;93521.73;;;;
2020/02/26 04:50:51;;;;;;;0.8;0.6;;;;;;;3.39;84.8252;93521.73;;;;
2020/02/26 04:51:51;;;;;;;0.8;0.6;;;;;;;3.39;84.8252;93521.73;;;;
2020/02/26 04:52:52;;;;;;;0.8;0.6;;;;;;;3.39;84.8252;93521.73;;;;
2020/02/26 04:53:53;;;;;;;0.8;0.6;;;;;;;3.39;84.8252;93521.73;;;;
2020/02/26 04:54:54;;;;;;;0.8;0.6;;;;;;;3.39;84.8252;93521.73;;;;
2020/02/26 04:55:55;;;;;;;0.8;0.6;;;;;;;3.39;84.8252;93521.73;;;;
2020/02/26 04:56:58;;;;;;;1.25;0.7;;;;;;;3.42;83.59082;93518.72;;;;
2020/02/26 04:57:59;;;;;;;1.25;0.7;;;;;;;3.42;83.59082;93518.72;;;;
2020/02/26 04:59:01;;;;;;;1.25;0.7;;;;;;;3.42;83.59082;93518.72;;;;
2020/02/26 05:00:02;;;;;;;1.25;0.7;;;;;;;3.42;83.59082;93518.72;;;;
2020/02/26 05:01:37;;;;;;;1.25;0.7;;;;;;;3.42;83.59082;93518.72;;;;
2020/02/26 05:02:38;;;;;;;1.25;0.7;;;;;;;3.42;83.59082;93518.72;;;;
2020/02/26 05:03:40;;;;;;;1.25;0.7;;;;;;;3.42;83.59082;93518.72;;;;
2020/02/26 05:04:43;;;;;;;1.25;0.7;;;;;;;3.42;83.59082;93518.72;;;;
2020/02/26 05:05:44;;;;;;;1.25;0.7;;;;;;;3.42;83.59082;93518.72;;;;
2020/02/26 05:06:46;;;;;;;1.25;0.7;;;;;;;3.42;83.59082;93518.72;;;;
2020/02/26 05:07:48;;;;;;;1.4;0.7;;;;;;;3.29;82.62109;93529.64;;;;
2020/02/26 05:08:53;;;;;;;1.4;0.7;;;;;;;3.29;82.62109;93529.64;;;;
2020/02/26 05:10:25;;;;;;;1.4;0.7;;;;;;;3.29;82.62109;93529.64;;;;
2020/02/26 05:11:26;;;;;;;1.4;0.7;;;;;;;3.29;82.62109;93529.64;;;;
2020/02/26 05:12:29;;;;;;;1.4;0.7;;;;;;;3.29;82.62109;93529.64;;;;
2020/02/26 05:13:33;;;;;;;1.4;0.7;;;;;;;3.29;82.62109;93529.64;;;;
2020/02/26 05:14:36;;;;;;;1.4;0.7;;;;;;;3.29;82.62109;93529.64;;;;
2020/02/26 05:15:41;;;;;;;1.4;0.7;;;;;;;3.29;82.62109;93529.64;;;;
2020/02/26 05:16:46;;;;;;;1.4;0.7;;;;;;;3.29;82.62109;93529.64;;;;
2020/02/26 05:17:51;;;;;;;1.4;0.7;;;;;;;3.29;82.62109;93529.64;;;;
2020/02/26 05:18:52;;;;;;;0.75;0.75;;;;;;;3.2;82.61621;93530.52;;;;
2020/02/26 05:19:56;;;;;;;0.75;0.75;;;;;;;3.2;82.61621;93530.52;;;;
2020/02/26 05:20:57;;;;;;;0.75;0.75;;;;;;;3.2;82.61621;93530.52;;;;
2020/02/26 05:22:04;;;;;;;0.75;0.75;;;;;;;3.2;82.61621;93530.52;;;;
2020/02/26 05:23:08;;;;;;;0.75;0.75;;;;;;;3.2;82.61621;93530.52;;;;
2020/02/26 05:24:10;;;;;;;0.75;0.75;;;;;;;3.2;82.61621;93530.52;;;;
2020/02/26 05:25:12;;;;;;;0.75;0.75;;;;;;;3.2;82.61621;93530.52;;;;
2020/02/26 05:26:16;;;;;;;0.75;0.75;;;;;;;3.2;82.61621;93530.52;;;;
2020/02/26 05:27:17;;;;;;;0.75;0.75;;;;;;;3.2;82.61621;93530.52;;;;
2020/02/26 05:28:28;;;;;;;0.75;0.75;;;;;;;3.2;82.61621;93530.52;;;;
2020/02/26 05:29:28;;;;;;;1;0.9;;;;;;;3.12;82.61914;93512.2;;;;
2020/02/26 05:30:29;;;;;;;1;0.9;;;;;;;3.12;82.61914;93512.2;;;;
2020/02/26 05:31:35;;;;;;;1;0.9;;;;;;;3.12;82.61914;93512.2;;;;
2020/02/26 05:32:36;;;;;;;1;0.9;;;;;;;3.12;82.61914;93512.2;;;;
2020/02/26 05:33:37;;;;;;;1;0.9;;;;;;;3.12;82.61914;93512.2;;;;
2020/02/26 05:34:37;;;;;;;1;0.9;;;;;;;3.12;82.61914;93512.2;;;;
2020/02/26 05:35:38;;;;;;;1;0.9;;;;;;;3.12;82.61914;93512.2;;;;
2020/02/26 05:36:39;;;;;;;1;0.9;;;;;;;3.12;82.61914;93512.2;;;;
2020/02/26 05:37:40;;;;;;;1;0.9;;;;;;;3.12;82.61914;93512.2;;;;
2020/02/26 05:38:42;;;;;;;1;0.9;;;;;;;3.12;82.61914;93512.2;;;;
2020/02/26 05:39:46;;;;;;;0.9;0.9;;;;;;;3.24;82.41211;93524.58;;;;
2020/02/26 05:40:48;;;;;;;0.9;0.9;;;;;;;3.24;82.41211;93524.58;;;;
2020/02/26 05:41:49;;;;;;;0.9;0.9;;;;;;;3.24;82.41211;93524.58;;;;
2020/02/26 05:42:49;;;;;;;0.9;0.9;;;;;;;3.24;82.41211;93524.58;;;;
2020/02/26 05:43:53;;;;;;;0.9;0.9;;;;;;;3.24;82.41211;93524.58;;;;
2020/02/26 05:44:55;;;;;;;0.9;0.9;;;;;;;3.24;82.41211;93524.58;;;;
2020/02/26 05:45:59;;;;;;;0.9;0.9;;;;;;;3.24;82.41211;93524.58;;;;
2020/02/26 05:47:03;;;;;;;0.9;0.9;;;;;;;3.24;82.41211;93524.58;;;;
2020/02/26 05:48:05;;;;;;;0.9;0.9;;;;;;;3.24;82.41211;93524.58;;;;
2020/02/26 05:49:10;;;;;;;0.9;0.9;;;;;;;3.24;82.41211;93524.58;;;;
2020/02/26 05:50:14;;;;;;;0.75;0.75;;;;;;;3.31;82.09082;93533.67;;;;
2020/02/26 05:51:17;;;;;;;0.75;0.75;;;;;;;3.31;82.09082;93533.67;;;;
2020/02/26 05:52:21;;;;;;;0.75;0.75;;;;;;;3.31;82.09082;93533.67;;;;
2020/02/26 05:53:22;;;;;;;0.75;0.75;;;;;;;3.31;82.09082;93533.67;;;;
2020/02/26 05:54:26;;;;;;;0.75;0.75;;;;;;;3.31;82.09082;93533.67;;;;
2020/02/26 05:55:31;;;;;;;0.75;0.75;;;;;;;3.31;82.09082;93533.67;;;;
2020/02/26 05:56:33;;;;;;;0.75;0.75;;;;;;;3.31;82.09082;93533.67;;;;
2020/02/26 05:57:40;;;;;;;0.75;0.75;;;;;;;3.31;82.09082;93533.67;;;;
2020/02/26 05:58:41;;;;;;;0.75;0.75;;;;;;;3.31;82.09082;93533.67;;;;
2020/02/26 05:59:47;;;;;;;0.75;0.75;;;;;;;3.31;82.09082;93533.67;;;;
2020/02/26 06:06:07;;;;;;;1.15;0.9;;;;;;;3.32;81.6416;93552.23;;;;
2020/02/26 06:07:11;;;;;;;1.15;0.9;;;;;;;3.32;81.6416;93552.23;;;;
2020/02/26 06:08:12;;;;;;;1.15;0.9;;;;;;;3.32;81.6416;93552.23;;;;
2020/02/26 06:09:13;;;;;;;1.15;0.9;;;;;;;3.32;81.6416;93552.23;;;;
2020/02/26 06:10:21;;;;;;;1.15;0.9;;;;;;;3.32;81.6416;93552.23;;;;
2020/02/26 06:11:22;;;;;;;1.1;0.8;;;;;;;3.03;80.91406;93554.92;;;;
2020/02/26 06:12:23;;;;;;;1.1;0.8;;;;;;;3.03;80.91406;93554.92;;;;
2020/02/26 06:13:27;;;;;;;1.1;0.8;;;;;;;3.03;80.91406;93554.92;;;;
2020/02/26 06:14:28;;;;;;;1.1;0.8;;;;;;;3.03;80.91406;93554.92;;;;
2020/02/26 06:15:30;;;;;;;1.1;0.8;;;;;;;3.03;80.91406;93554.92;;;;
2020/02/26 06:16:31;;;;;;;1.1;0.8;;;;;;;3.03;80.91406;93554.92;;;;
2020/02/26 06:17:36;;;;;;;1.1;0.8;;;;;;;3.03;80.91406;93554.92;;;;
2020/02/26 06:18:43;;;;;;;1.1;0.8;;;;;;;3.03;80.91406;93554.92;;;;
2020/02/26 06:19:44;;;;;;;1.1;0.8;;;;;;;3.03;80.91406;93554.92;;;;
2020/02/26 06:20:44;;;;;;;1.1;0.8;;;;;;;3.03;80.91406;93554.92;;;;
2020/02/26 06:21:45;;;;;;;1.1;0.8;;;;;;;3.03;80.91406;93554.92;;;;
2020/02/26 06:22:46;;;;;;;0.9;0.8;;;;;;;2.85;80.57617;93582.09;;;;
2020/02/26 06:23:47;;;;;;;0.9;0.8;;;;;;;2.85;80.57617;93582.09;;;;
2020/02/26 06:24:48;;;;;;;0.9;0.8;;;;;;;2.85;80.57617;93582.09;;;;
2020/02/26 06:25:49;;;;;;;0.9;0.8;;;;;;;2.85;80.57617;93582.09;;;;
2020/02/26 06:26:50;;;;;;;0.9;0.8;;;;;;;2.85;80.57617;93582.09;;;;
2020/02/26 06:27:53;;;;;;;0.9;0.8;;;;;;;2.85;80.57617;93582.09;;;;
2020/02/26 06:28:58;;;;;;;0.9;0.8;;;;;;;2.85;80.57617;93582.09;;;;
2020/02/26 06:29:58;;;;;;;0.9;0.8;;;;;;;2.85;80.57617;93582.09;;;;
2020/02/26 06:31:00;;;;;;;0.9;0.8;;;;;;;2.85;80.57617;93582.09;;;;
2020/02/26 06:32:02;;;;;;;0.9;0.8;;;;;;;2.85;80.57617;93582.09;;;;
2020/02/26 06:33:08;;;;;;;1.4;0.8;;;;;;;2.72;80.10254;93561.4;;;;
2020/02/26 06:34:11;;;;;;;1.4;0.8;;;;;;;2.72;80.10254;93561.4;;;;
2020/02/26 06:35:14;;;;;;;1.4;0.8;;;;;;;2.72;80.10254;93561.4;;;;
2020/02/26 06:36:18;;;;;;;1.4;0.8;;;;;;;2.72;80.10254;93561.4;;;;
2020/02/26 06:37:20;;;;;;;1.4;0.8;;;;;;;2.72;80.10254;93561.4;;;;
2020/02/26 06:38:21;;;;;;;1.4;0.8;;;;;;;2.72;80.10254;93561.4;;;;
2020/02/26 06:39:22;;;;;;;1.4;0.8;;;;;;;2.72;80.10254;93561.4;;;;
2020/02/26 06:40:32;;;;;;;1.4;0.8;;;;;;;2.72;80.10254;93561.4;;;;
2020/02/26 06:41:36;;;;;;;1.4;0.8;;;;;;;2.72;80.10254;93561.4;;;;
2020/02/26 06:42:37;;;;;;;1.4;0.8;;;;;;;2.72;80.10254;93561.4;;;;
2020/02/26 06:43:38;;;;;;;1.2;0.8;;;;;;;2.74;79.62402;93591.3;;;;
2020/02/26 06:44:41;;;;;;;1.2;0.8;;;;;;;2.74;79.62402;93591.3;;;;
2020/02/26 06:45:41;;;;;;;1.2;0.8;;;;;;;2.74;79.62402;93591.3;;;;
2020/02/26 06:46:44;;;;;;;1.2;0.8;;;;;;;2.74;79.62402;93591.3;;;;
2020/02/26 06:47:53;;;;;;;1.2;0.8;;;;;;;2.74;79.62402;93591.3;;;;
2020/02/26 06:48:58;;;;;;;1.2;0.8;;;;;;;2.74;79.62402;93591.3;;;;
2020/02/26 06:49:58;;;;;;;1.2;0.8;;;;;;;2.74;79.62402;93591.3;;;;
2020/02/26 06:51:01;;;;;;;1.2;0.8;;;;;;;2.74;79.62402;93591.3;;;;
2020/02/26 06:52:53;;;;;;;1.2;0.8;;;;;;;2.74;79.62402;93591.3;;;;
2020/02/26 06:59:27;;;;;;;1.5;0.8;;;;;;;2.68;79.10742;93601.11;;;;
2020/02/26 07:00:27;;;;;;;1.5;0.8;;;;;;;2.68;79.10742;93601.11;;;;
2020/02/26 07:01:28;;;;;;;1.5;0.8;;;;;;;2.68;79.10742;93601.11;;;;
2020/02/26 07:02:36;;;;;;;1.5;0.8;;;;;;;2.68;79.10742;93601.11;;;;
2020/02/26 07:03:37;;;;;;;1.5;0.8;;;;;;;2.68;79.10742;93601.11;;;;
2020/02/26 07:04:37;;;;;;;2.45;0.9;;;;;;;2.71;79.07129;93586.94;;;;
2020/02/26 07:05:38;;;;;;;2.45;0.9;;;;;;;2.71;79.07129;93586.94;;;;
2020/02/26 07:06:39;;;;;;;2.45;0.9;;;;;;;2.71;79.07129;93586.94;;;;
2020/02/26 07:07:40;;;;;;;2.45;0.9;;;;;;;2.71;79.07129;93586.94;;;;